sensor_id;sensor_type;location;lat;lon;timestamp;P1;durP1;ratioP1;P2;durP2;ratioP2
81170;SDS011;70644;44.818;20.478;2023-12-07T00:01:00;5.90;;;5.40;;
81170;SDS011;70644;44.818;20.478;2023-12-07T00:03:26;6.07;;;5.47;;
81170;SDS011;70644;44.818;20.478;2023-12-07T00:05:52;6.47;;;5.75;;
81170;SDS011;70644;44.818;20.478;2023-12-07T00:08:18;6.35;;;5.75;;
81170;SDS011;70644;44.818;20.478;2023-12-07T00:10:44;6.18;;;5.57;;
81170;SDS011;70644;44.818;20.478;2023-12-07T00:13:10;6.07;;;5.47;;
81170;SDS011;70644;44.818;20.478;2023-12-07T00:15:36;5.80;;;5.30;;
81170;SDS011;70644;44.818;20.478;2023-12-07T00:18:02;5.80;;;5.30;;
81170;SDS011;70644;44.818;20.478;2023-12-07T00:20:29;6.07;;;5.47;;
81170;SDS011;70644;44.818;20.478;2023-12-07T00:22:55;6.18;;;5.45;;
81170;SDS011;70644;44.818;20.478;2023-12-07T00:25:21;5.72;;;5.20;;
81170;SDS011;70644;44.818;20.478;2023-12-07T00:27:48;6.22;;;5.63;;
81170;SDS011;70644;44.818;20.478;2023-12-07T00:30:14;5.68;;;5.18;;
81170;SDS011;70644;44.818;20.478;2023-12-07T00:32:41;5.72;;;5.22;;
81170;SDS011;70644;44.818;20.478;2023-12-07T00:35:11;5.82;;;5.22;;
81170;SDS011;70644;44.818;20.478;2023-12-07T00:37:38;5.82;;;5.30;;
81170;SDS011;70644;44.818;20.478;2023-12-07T00:40:04;6.18;;;5.57;;
81170;SDS011;70644;44.818;20.478;2023-12-07T00:42:33;6.25;;;5.65;;
81170;SDS011;70644;44.818;20.478;2023-12-07T00:45:02;5.63;;;5.10;;
81170;SDS011;70644;44.818;20.478;2023-12-07T00:47:29;5.40;;;4.90;;
81170;SDS011;70644;44.818;20.478;2023-12-07T00:49:55;5.07;;;4.55;;
81170;SDS011;70644;44.818;20.478;2023-12-07T00:52:21;6.25;;;5.65;;
81170;SDS011;70644;44.818;20.478;2023-12-07T00:54:47;5.47;;;4.97;;
81170;SDS011;70644;44.818;20.478;2023-12-07T00:57:13;5.82;;;5.30;;
81170;SDS011;70644;44.818;20.478;2023-12-07T00:59:39;5.75;;;5.25;;
81170;SDS011;70644;44.818;20.478;2023-12-07T01:02:08;6.32;;;5.70;;
81170;SDS011;70644;44.818;20.478;2023-12-07T01:04:34;5.93;;;5.32;;
81170;SDS011;70644;44.818;20.478;2023-12-07T01:07:00;5.25;;;4.75;;
81170;SDS011;70644;44.818;20.478;2023-12-07T01:09:26;6.00;;;5.50;;
81170;SDS011;70644;44.818;20.478;2023-12-07T01:11:52;5.68;;;5.07;;
81170;SDS011;70644;44.818;20.478;2023-12-07T01:14:18;5.10;;;4.60;;
81170;SDS011;70644;44.818;20.478;2023-12-07T01:16:45;5.60;;;5.03;;
81170;SDS011;70644;44.818;20.478;2023-12-07T01:19:11;5.68;;;5.18;;
81170;SDS011;70644;44.818;20.478;2023-12-07T01:21:39;5.70;;;4.78;;
81170;SDS011;70644;44.818;20.478;2023-12-07T01:24:06;5.68;;;5.18;;
81170;SDS011;70644;44.818;20.478;2023-12-07T01:26:32;5.60;;;5.07;;
81170;SDS011;70644;44.818;20.478;2023-12-07T01:28:58;5.80;;;5.30;;
81170;SDS011;70644;44.818;20.478;2023-12-07T01:31:24;5.80;;;5.20;;
81170;SDS011;70644;44.818;20.478;2023-12-07T01:33:50;5.50;;;5.00;;
81170;SDS011;70644;44.818;20.478;2023-12-07T01:36:16;5.07;;;4.57;;
81170;SDS011;70644;44.818;20.478;2023-12-07T01:38:42;5.53;;;5.03;;
81170;SDS011;70644;44.818;20.478;2023-12-07T01:41:08;6.15;;;5.55;;
81170;SDS011;70644;44.818;20.478;2023-12-07T01:43:34;5.47;;;4.97;;
81170;SDS011;70644;44.818;20.478;2023-12-07T01:46:00;5.43;;;4.93;;
81170;SDS011;70644;44.818;20.478;2023-12-07T01:48:27;5.75;;;5.20;;
81170;SDS011;70644;44.818;20.478;2023-12-07T01:50:55;5.43;;;4.93;;
81170;SDS011;70644;44.818;20.478;2023-12-07T01:53:21;5.50;;;4.78;;
81170;SDS011;70644;44.818;20.478;2023-12-07T01:55:48;5.28;;;4.78;;
81170;SDS011;70644;44.818;20.478;2023-12-07T01:58:15;5.75;;;5.15;;
81170;SDS011;70644;44.818;20.478;2023-12-07T02:00:42;5.22;;;4.72;;
81170;SDS011;70644;44.818;20.478;2023-12-07T02:03:08;5.43;;;4.93;;
81170;SDS011;70644;44.818;20.478;2023-12-07T02:05:35;5.43;;;4.78;;
81170;SDS011;70644;44.818;20.478;2023-12-07T02:08:02;5.38;;;4.88;;
81170;SDS011;70644;44.818;20.478;2023-12-07T02:10:29;5.32;;;4.82;;
81170;SDS011;70644;44.818;20.478;2023-12-07T02:12:55;5.38;;;4.88;;
81170;SDS011;70644;44.818;20.478;2023-12-07T02:15:21;5.50;;;4.80;;
81170;SDS011;70644;44.818;20.478;2023-12-07T02:17:58;5.97;;;5.38;;
81170;SDS011;70644;44.818;20.478;2023-12-07T02:20:29;5.57;;;5.03;;
81170;SDS011;70644;44.818;20.478;2023-12-07T02:22:59;5.20;;;4.70;;
81170;SDS011;70644;44.818;20.478;2023-12-07T02:25:29;5.30;;;4.80;;
81170;SDS011;70644;44.818;20.478;2023-12-07T02:27:57;4.88;;;4.38;;
81170;SDS011;70644;44.818;20.478;2023-12-07T02:30:23;5.47;;;4.97;;
81170;SDS011;70644;44.818;20.478;2023-12-07T02:32:49;5.38;;;4.88;;
81170;SDS011;70644;44.818;20.478;2023-12-07T02:35:15;5.55;;;4.90;;
81170;SDS011;70644;44.818;20.478;2023-12-07T02:37:45;5.22;;;4.72;;
81170;SDS011;70644;44.818;20.478;2023-12-07T02:40:12;5.93;;;5.32;;
81170;SDS011;70644;44.818;20.478;2023-12-07T02:42:40;5.45;;;4.93;;
81170;SDS011;70644;44.818;20.478;2023-12-07T02:45:08;5.25;;;4.60;;
81170;SDS011;70644;44.818;20.478;2023-12-07T02:47:34;5.63;;;4.93;;
81170;SDS011;70644;44.818;20.478;2023-12-07T02:50:01;5.45;;;4.82;;
81170;SDS011;70644;44.818;20.478;2023-12-07T02:52:27;5.53;;;4.68;;
81170;SDS011;70644;44.818;20.478;2023-12-07T02:54:54;5.85;;;5.30;;
81170;SDS011;70644;44.818;20.478;2023-12-07T02:57:20;5.50;;;5.00;;
81170;SDS011;70644;44.818;20.478;2023-12-07T02:59:46;5.70;;;4.88;;
81170;SDS011;70644;44.818;20.478;2023-12-07T03:02:12;5.65;;;5.15;;
81170;SDS011;70644;44.818;20.478;2023-12-07T03:04:38;5.53;;;4.97;;
81170;SDS011;70644;44.818;20.478;2023-12-07T03:07:04;5.25;;;4.75;;
81170;SDS011;70644;44.818;20.478;2023-12-07T03:09:30;5.32;;;4.82;;
81170;SDS011;70644;44.818;20.478;2023-12-07T03:11:56;6.18;;;5.57;;
81170;SDS011;70644;44.818;20.478;2023-12-07T03:14:22;5.32;;;4.82;;
81170;SDS011;70644;44.818;20.478;2023-12-07T03:16:48;5.68;;;5.18;;
81170;SDS011;70644;44.818;20.478;2023-12-07T03:19:14;6.07;;;5.05;;
81170;SDS011;70644;44.818;20.478;2023-12-07T03:21:40;5.90;;;5.10;;
81170;SDS011;70644;44.818;20.478;2023-12-07T03:24:07;5.70;;;5.10;;
81170;SDS011;70644;44.818;20.478;2023-12-07T03:26:34;5.60;;;5.10;;
81170;SDS011;70644;44.818;20.478;2023-12-07T03:29:00;5.60;;;5.00;;
81170;SDS011;70644;44.818;20.478;2023-12-07T03:31:27;5.80;;;5.20;;
81170;SDS011;70644;44.818;20.478;2023-12-07T03:33:53;5.35;;;4.85;;
81170;SDS011;70644;44.818;20.478;2023-12-07T03:36:19;5.57;;;5.05;;
81170;SDS011;70644;44.818;20.478;2023-12-07T03:38:45;5.38;;;4.88;;
81170;SDS011;70644;44.818;20.478;2023-12-07T03:41:11;5.40;;;4.90;;
81170;SDS011;70644;44.818;20.478;2023-12-07T03:43:38;5.70;;;5.20;;
81170;SDS011;70644;44.818;20.478;2023-12-07T03:46:04;5.72;;;5.13;;
81170;SDS011;70644;44.818;20.478;2023-12-07T03:48:30;5.82;;;5.28;;
81170;SDS011;70644;44.818;20.478;2023-12-07T03:50:56;6.10;;;5.50;;
81170;SDS011;70644;44.818;20.478;2023-12-07T03:53:22;5.65;;;5.05;;
81170;SDS011;70644;44.818;20.478;2023-12-07T03:55:48;5.63;;;5.10;;
81170;SDS011;70644;44.818;20.478;2023-12-07T03:58:14;5.80;;;5.22;;
81170;SDS011;70644;44.818;20.478;2023-12-07T04:00:40;6.03;;;5.43;;
81170;SDS011;70644;44.818;20.478;2023-12-07T04:03:06;6.57;;;5.97;;
81170;SDS011;70644;44.818;20.478;2023-12-07T04:05:33;5.90;;;5.35;;
81170;SDS011;70644;44.818;20.478;2023-12-07T04:07:59;5.53;;;4.93;;
81170;SDS011;70644;44.818;20.478;2023-12-07T04:10:25;5.25;;;4.75;;
81170;SDS011;70644;44.818;20.478;2023-12-07T04:12:51;5.75;;;5.25;;
81170;SDS011;70644;44.818;20.478;2023-12-07T04:15:18;5.53;;;4.80;;
81170;SDS011;70644;44.818;20.478;2023-12-07T04:17:44;5.07;;;4.53;;
81170;SDS011;70644;44.818;20.478;2023-12-07T04:20:10;5.70;;;5.15;;
81170;SDS011;70644;44.818;20.478;2023-12-07T04:22:38;6.00;;;5.40;;
81170;SDS011;70644;44.818;20.478;2023-12-07T04:25:04;5.72;;;5.13;;
81170;SDS011;70644;44.818;20.478;2023-12-07T04:27:30;6.35;;;5.75;;
81170;SDS011;70644;44.818;20.478;2023-12-07T04:29:56;5.75;;;5.15;;
81170;SDS011;70644;44.818;20.478;2023-12-07T04:32:23;5.50;;;4.88;;
81170;SDS011;70644;44.818;20.478;2023-12-07T04:34:49;5.90;;;5.38;;
81170;SDS011;70644;44.818;20.478;2023-12-07T04:37:15;5.53;;;5.03;;
81170;SDS011;70644;44.818;20.478;2023-12-07T04:39:41;5.60;;;5.10;;
81170;SDS011;70644;44.818;20.478;2023-12-07T04:42:07;5.93;;;5.32;;
81170;SDS011;70644;44.818;20.478;2023-12-07T04:44:33;5.90;;;5.30;;
81170;SDS011;70644;44.818;20.478;2023-12-07T04:46:59;6.10;;;5.50;;
81170;SDS011;70644;44.818;20.478;2023-12-07T04:49:25;5.95;;;5.35;;
81170;SDS011;70644;44.818;20.478;2023-12-07T04:51:51;6.15;;;5.55;;
81170;SDS011;70644;44.818;20.478;2023-12-07T04:54:17;6.30;;;5.70;;
81170;SDS011;70644;44.818;20.478;2023-12-07T04:56:44;5.47;;;4.75;;
81170;SDS011;70644;44.818;20.478;2023-12-07T04:59:10;6.07;;;5.47;;
81170;SDS011;70644;44.818;20.478;2023-12-07T05:01:36;5.35;;;4.85;;
81170;SDS011;70644;44.818;20.478;2023-12-07T05:04:03;5.88;;;5.30;;
81170;SDS011;70644;44.818;20.478;2023-12-07T05:06:32;6.60;;;5.93;;
81170;SDS011;70644;44.818;20.478;2023-12-07T05:08:58;5.53;;;5.03;;
81170;SDS011;70644;44.818;20.478;2023-12-07T05:11:24;6.40;;;5.72;;
81170;SDS011;70644;44.818;20.478;2023-12-07T05:13:51;5.95;;;5.35;;
81170;SDS011;70644;44.818;20.478;2023-12-07T05:16:18;5.68;;;5.10;;
81170;SDS011;70644;44.818;20.478;2023-12-07T05:18:44;5.65;;;5.13;;
81170;SDS011;70644;44.818;20.478;2023-12-07T05:21:11;6.10;;;5.50;;
81170;SDS011;70644;44.818;20.478;2023-12-07T05:23:37;5.95;;;5.35;;
81170;SDS011;70644;44.818;20.478;2023-12-07T05:26:03;6.03;;;5.43;;
81170;SDS011;70644;44.818;20.478;2023-12-07T05:28:30;6.13;;;5.53;;
81170;SDS011;70644;44.818;20.478;2023-12-07T05:30:56;5.95;;;5.38;;
81170;SDS011;70644;44.818;20.478;2023-12-07T05:33:22;5.88;;;5.28;;
81170;SDS011;70644;44.818;20.478;2023-12-07T05:35:48;6.03;;;5.10;;
81170;SDS011;70644;44.818;20.478;2023-12-07T05:38:14;4.90;;;4.20;;
81170;SDS011;70644;44.818;20.478;2023-12-07T05:40:40;6.13;;;5.53;;
81170;SDS011;70644;44.818;20.478;2023-12-07T05:43:06;5.97;;;5.38;;
81170;SDS011;70644;44.818;20.478;2023-12-07T05:45:33;6.45;;;5.57;;
81170;SDS011;70644;44.818;20.478;2023-12-07T05:47:59;6.03;;;5.43;;
81170;SDS011;70644;44.818;20.478;2023-12-07T05:50:25;5.95;;;5.35;;
81170;SDS011;70644;44.818;20.478;2023-12-07T05:52:51;6.63;;;6.00;;
81170;SDS011;70644;44.818;20.478;2023-12-07T05:55:18;6.22;;;5.72;;
81170;SDS011;70644;44.818;20.478;2023-12-07T05:57:46;6.43;;;5.82;;
81170;SDS011;70644;44.818;20.478;2023-12-07T06:02:38;7.03;;;5.43;;
81170;SDS011;70644;44.818;20.478;2023-12-07T06:05:05;5.85;;;5.25;;
81170;SDS011;70644;44.818;20.478;2023-12-07T06:07:31;6.10;;;5.50;;
81170;SDS011;70644;44.818;20.478;2023-12-07T06:09:58;6.00;;;5.40;;
81170;SDS011;70644;44.818;20.478;2023-12-07T06:12:24;6.32;;;5.35;;
81170;SDS011;70644;44.818;20.478;2023-12-07T06:14:50;6.05;;;5.45;;
81170;SDS011;70644;44.818;20.478;2023-12-07T06:17:16;6.45;;;5.85;;
81170;SDS011;70644;44.818;20.478;2023-12-07T06:19:42;6.15;;;5.55;;
81170;SDS011;70644;44.818;20.478;2023-12-07T06:22:09;6.78;;;6.07;;
81170;SDS011;70644;44.818;20.478;2023-12-07T06:24:35;6.32;;;5.72;;
81170;SDS011;70644;44.818;20.478;2023-12-07T06:27:02;6.40;;;5.80;;
81170;SDS011;70644;44.818;20.478;2023-12-07T06:29:28;6.65;;;6.05;;
81170;SDS011;70644;44.818;20.478;2023-12-07T06:31:54;6.55;;;5.95;;
81170;SDS011;70644;44.818;20.478;2023-12-07T06:34:20;6.28;;;5.68;;
81170;SDS011;70644;44.818;20.478;2023-12-07T06:36:46;6.18;;;5.57;;
81170;SDS011;70644;44.818;20.478;2023-12-07T06:39:13;6.28;;;5.68;;
81170;SDS011;70644;44.818;20.478;2023-12-07T06:41:39;6.32;;;5.72;;
81170;SDS011;70644;44.818;20.478;2023-12-07T06:44:08;5.80;;;5.30;;
81170;SDS011;70644;44.818;20.478;2023-12-07T06:46:34;6.05;;;5.45;;
81170;SDS011;70644;44.818;20.478;2023-12-07T06:49:00;6.60;;;6.00;;
81170;SDS011;70644;44.818;20.478;2023-12-07T06:51:26;5.95;;;5.45;;
81170;SDS011;70644;44.818;20.478;2023-12-07T06:53:52;6.90;;;6.30;;
81170;SDS011;70644;44.818;20.478;2023-12-07T06:56:18;6.45;;;5.85;;
81170;SDS011;70644;44.818;20.478;2023-12-07T06:58:44;6.40;;;5.80;;
81170;SDS011;70644;44.818;20.478;2023-12-07T07:01:10;6.55;;;5.90;;
81170;SDS011;70644;44.818;20.478;2023-12-07T07:03:37;6.60;;;6.00;;
81170;SDS011;70644;44.818;20.478;2023-12-07T07:06:03;6.75;;;6.05;;
81170;SDS011;70644;44.818;20.478;2023-12-07T07:08:30;6.30;;;5.70;;
81170;SDS011;70644;44.818;20.478;2023-12-07T07:10:56;6.57;;;5.90;;
81170;SDS011;70644;44.818;20.478;2023-12-07T07:13:22;5.82;;;5.25;;
81170;SDS011;70644;44.818;20.478;2023-12-07T07:15:48;6.07;;;5.47;;
81170;SDS011;70644;44.818;20.478;2023-12-07T07:18:14;6.55;;;5.95;;
81170;SDS011;70644;44.818;20.478;2023-12-07T07:20:40;6.78;;;6.18;;
81170;SDS011;70644;44.818;20.478;2023-12-07T07:23:07;6.03;;;5.43;;
81170;SDS011;70644;44.818;20.478;2023-12-07T07:25:33;6.05;;;5.45;;
81170;SDS011;70644;44.818;20.478;2023-12-07T07:27:59;6.43;;;5.82;;
81170;SDS011;70644;44.818;20.478;2023-12-07T07:30:25;6.63;;;6.03;;
81170;SDS011;70644;44.818;20.478;2023-12-07T07:32:52;6.38;;;5.78;;
81170;SDS011;70644;44.818;20.478;2023-12-07T07:35:18;5.63;;;5.13;;
81170;SDS011;70644;44.818;20.478;2023-12-07T07:37:44;6.43;;;5.82;;
81170;SDS011;70644;44.818;20.478;2023-12-07T07:40:10;6.47;;;5.88;;
81170;SDS011;70644;44.818;20.478;2023-12-07T07:42:39;5.55;;;4.88;;
81170;SDS011;70644;44.818;20.478;2023-12-07T07:47:31;7.55;;;5.50;;
81170;SDS011;70644;44.818;20.478;2023-12-07T07:49:57;5.65;;;5.05;;
81170;SDS011;70644;44.818;20.478;2023-12-07T07:52:23;6.00;;;5.50;;
81170;SDS011;70644;44.818;20.478;2023-12-07T07:54:49;6.03;;;5.25;;
81170;SDS011;70644;44.818;20.478;2023-12-07T07:57:16;6.25;;;5.65;;
81170;SDS011;70644;44.818;20.478;2023-12-07T07:59:42;5.72;;;5.15;;
81170;SDS011;70644;44.818;20.478;2023-12-07T08:02:08;7.70;;;6.45;;
81170;SDS011;70644;44.818;20.478;2023-12-07T08:04:34;8.57;;;6.32;;
81170;SDS011;70644;44.818;20.478;2023-12-07T08:07:01;7.18;;;6.10;;
81170;SDS011;70644;44.818;20.478;2023-12-07T08:09:27;6.82;;;5.70;;
81170;SDS011;70644;44.818;20.478;2023-12-07T08:11:53;7.25;;;6.00;;
81170;SDS011;70644;44.818;20.478;2023-12-07T08:14:19;7.45;;;5.90;;
81170;SDS011;70644;44.818;20.478;2023-12-07T08:16:45;8.73;;;5.65;;
81170;SDS011;70644;44.818;20.478;2023-12-07T08:19:11;8.73;;;5.72;;
81170;SDS011;70644;44.818;20.478;2023-12-07T08:21:38;7.88;;;5.82;;
81170;SDS011;70644;44.818;20.478;2023-12-07T08:24:04;6.40;;;5.75;;
81170;SDS011;70644;44.818;20.478;2023-12-07T08:26:33;9.13;;;5.90;;
81170;SDS011;70644;44.818;20.478;2023-12-07T08:28:59;7.57;;;5.93;;
81170;SDS011;70644;44.818;20.478;2023-12-07T08:31:25;9.65;;;5.80;;
81170;SDS011;70644;44.818;20.478;2023-12-07T08:33:51;9.88;;;5.55;;
81170;SDS011;70644;44.818;20.478;2023-12-07T08:36:17;10.00;;;5.45;;
81170;SDS011;70644;44.818;20.478;2023-12-07T08:38:43;9.55;;;5.80;;
81170;SDS011;70644;44.818;20.478;2023-12-07T08:41:10;8.73;;;5.50;;
81170;SDS011;70644;44.818;20.478;2023-12-07T08:43:36;7.65;;;5.45;;
81170;SDS011;70644;44.818;20.478;2023-12-07T08:46:02;8.30;;;5.93;;
81170;SDS011;70644;44.818;20.478;2023-12-07T08:48:29;7.25;;;5.68;;
81170;SDS011;70644;44.818;20.478;2023-12-07T08:50:56;7.85;;;5.65;;
81170;SDS011;70644;44.818;20.478;2023-12-07T08:53:23;7.60;;;5.75;;
81170;SDS011;70644;44.818;20.478;2023-12-07T08:55:49;6.13;;;5.15;;
81170;SDS011;70644;44.818;20.478;2023-12-07T08:58:15;8.95;;;5.63;;
81170;SDS011;70644;44.818;20.478;2023-12-07T09:00:41;9.15;;;5.43;;
81170;SDS011;70644;44.818;20.478;2023-12-07T09:03:07;6.90;;;5.20;;
81170;SDS011;70644;44.818;20.478;2023-12-07T09:05:33;7.50;;;5.53;;
81170;SDS011;70644;44.818;20.478;2023-12-07T09:07:59;7.80;;;6.07;;
81170;SDS011;70644;44.818;20.478;2023-12-07T09:10:25;8.75;;;5.53;;
81170;SDS011;70644;44.818;20.478;2023-12-07T09:12:51;9.07;;;5.55;;
81170;SDS011;70644;44.818;20.478;2023-12-07T09:15:17;6.13;;;5.30;;
81170;SDS011;70644;44.818;20.478;2023-12-07T09:17:43;8.20;;;6.00;;
81170;SDS011;70644;44.818;20.478;2023-12-07T09:20:10;8.35;;;5.68;;
81170;SDS011;70644;44.818;20.478;2023-12-07T09:22:40;7.68;;;5.63;;
81170;SDS011;70644;44.818;20.478;2023-12-07T09:25:06;6.38;;;5.35;;
81170;SDS011;70644;44.818;20.478;2023-12-07T09:27:33;7.63;;;5.70;;
81170;SDS011;70644;44.818;20.478;2023-12-07T09:30:02;6.85;;;5.07;;
81170;SDS011;70644;44.818;20.478;2023-12-07T09:32:30;7.60;;;5.07;;
81170;SDS011;70644;44.818;20.478;2023-12-07T09:34:57;8.52;;;5.15;;
81170;SDS011;70644;44.818;20.478;2023-12-07T09:37:23;8.40;;;5.45;;
81170;SDS011;70644;44.818;20.478;2023-12-07T09:39:49;8.00;;;4.95;;
81170;SDS011;70644;44.818;20.478;2023-12-07T09:42:16;8.57;;;5.53;;
81170;SDS011;70644;44.818;20.478;2023-12-07T09:44:42;8.05;;;5.07;;
81170;SDS011;70644;44.818;20.478;2023-12-07T09:47:08;6.72;;;5.10;;
81170;SDS011;70644;44.818;20.478;2023-12-07T09:49:36;7.82;;;4.55;;
81170;SDS011;70644;44.818;20.478;2023-12-07T09:52:02;7.03;;;4.93;;
81170;SDS011;70644;44.818;20.478;2023-12-07T09:54:29;7.45;;;5.05;;
81170;SDS011;70644;44.818;20.478;2023-12-07T09:56:56;6.97;;;4.55;;
81170;SDS011;70644;44.818;20.478;2023-12-07T09:59:22;7.03;;;5.88;;
81170;SDS011;70644;44.818;20.478;2023-12-07T10:01:48;5.80;;;4.78;;
81170;SDS011;70644;44.818;20.478;2023-12-07T10:04:15;5.28;;;4.70;;
81170;SDS011;70644;44.818;20.478;2023-12-07T10:06:44;6.03;;;4.80;;
81170;SDS011;70644;44.818;20.478;2023-12-07T10:09:11;5.65;;;5.13;;
81170;SDS011;70644;44.818;20.478;2023-12-07T10:11:38;5.57;;;4.63;;
81170;SDS011;70644;44.818;20.478;2023-12-07T10:14:05;4.90;;;4.40;;
81170;SDS011;70644;44.818;20.478;2023-12-07T10:16:32;9.43;;;5.18;;
81170;SDS011;70644;44.818;20.478;2023-12-07T10:19:23;5.82;;;4.68;;
81170;SDS011;70644;44.818;20.478;2023-12-07T10:21:48;12.50;;;4.95;;
81170;SDS011;70644;44.818;20.478;2023-12-07T10:24:18;6.50;;;4.72;;
81170;SDS011;70644;44.818;20.478;2023-12-07T10:26:45;7.85;;;4.68;;
81170;SDS011;70644;44.818;20.478;2023-12-07T10:29:11;7.40;;;4.55;;
81170;SDS011;70644;44.818;20.478;2023-12-07T10:31:37;5.82;;;4.88;;
81170;SDS011;70644;44.818;20.478;2023-12-07T10:34:07;6.25;;;4.60;;
81170;SDS011;70644;44.818;20.478;2023-12-07T10:36:33;5.80;;;4.80;;
81170;SDS011;70644;44.818;20.478;2023-12-07T10:39:01;8.80;;;5.05;;
81170;SDS011;70644;44.818;20.478;2023-12-07T10:41:31;22.75;;;11.38;;
81170;SDS011;70644;44.818;20.478;2023-12-07T10:44:00;27.90;;;11.98;;
81170;SDS011;70644;44.818;20.478;2023-12-07T10:46:26;25.75;;;12.60;;
81170;SDS011;70644;44.818;20.478;2023-12-07T10:49:11;26.30;;;12.82;;
81170;SDS011;70644;44.818;20.478;2023-12-07T10:51:41;23.00;;;12.23;;
81170;SDS011;70644;44.818;20.478;2023-12-07T10:54:07;21.23;;;11.80;;
81170;SDS011;70644;44.818;20.478;2023-12-07T10:56:42;27.35;;;11.60;;
81170;SDS011;70644;44.818;20.478;2023-12-07T10:59:09;22.33;;;11.52;;
81170;SDS011;70644;44.818;20.478;2023-12-07T11:01:41;21.35;;;11.13;;
81170;SDS011;70644;44.818;20.478;2023-12-07T11:04:08;24.52;;;12.13;;
81170;SDS011;70644;44.818;20.478;2023-12-07T11:06:36;22.00;;;11.25;;
81170;SDS011;70644;44.818;20.478;2023-12-07T11:09:05;18.33;;;11.20;;
81170;SDS011;70644;44.818;20.478;2023-12-07T11:11:34;18.92;;;9.88;;
81170;SDS011;70644;44.818;20.478;2023-12-07T11:14:03;19.23;;;11.05;;
81170;SDS011;70644;44.818;20.478;2023-12-07T11:16:36;21.23;;;9.98;;
81170;SDS011;70644;44.818;20.478;2023-12-07T11:19:03;16.55;;;9.68;;
81170;SDS011;70644;44.818;20.478;2023-12-07T11:21:32;14.70;;;8.95;;
81170;SDS011;70644;44.818;20.478;2023-12-07T11:24:01;17.70;;;9.60;;
81170;SDS011;70644;44.818;20.478;2023-12-07T11:26:27;18.08;;;9.48;;
81170;SDS011;70644;44.818;20.478;2023-12-07T11:28:54;13.52;;;8.43;;
81170;SDS011;70644;44.818;20.478;2023-12-07T11:31:21;13.60;;;8.32;;
81170;SDS011;70644;44.818;20.478;2023-12-07T11:33:47;15.75;;;8.32;;
81170;SDS011;70644;44.818;20.478;2023-12-07T11:36:14;14.63;;;8.48;;
81170;SDS011;70644;44.818;20.478;2023-12-07T11:41:28;13.65;;;8.48;;
81170;SDS011;70644;44.818;20.478;2023-12-07T11:43:58;11.85;;;8.07;;
81170;SDS011;70644;44.818;20.478;2023-12-07T11:46:24;12.68;;;7.47;;
81170;SDS011;70644;44.818;20.478;2023-12-07T11:48:50;13.43;;;8.15;;
81170;SDS011;70644;44.818;20.478;2023-12-07T11:51:17;12.35;;;6.80;;
81170;SDS011;70644;44.818;20.478;2023-12-07T11:53:43;12.23;;;7.30;;
81170;SDS011;70644;44.818;20.478;2023-12-07T11:56:10;12.93;;;7.65;;
81170;SDS011;70644;44.818;20.478;2023-12-07T11:58:38;13.48;;;7.00;;
81170;SDS011;70644;44.818;20.478;2023-12-07T12:01:05;11.77;;;7.55;;
81170;SDS011;70644;44.818;20.478;2023-12-07T12:03:32;15.50;;;7.65;;
81170;SDS011;70644;44.818;20.478;2023-12-07T12:05:58;17.00;;;7.20;;
81170;SDS011;70644;44.818;20.478;2023-12-07T12:08:24;13.35;;;7.03;;
81170;SDS011;70644;44.818;20.478;2023-12-07T12:10:51;12.60;;;7.50;;
81170;SDS011;70644;44.818;20.478;2023-12-07T12:13:18;11.75;;;7.43;;
81170;SDS011;70644;44.818;20.478;2023-12-07T12:15:44;11.25;;;7.30;;
81170;SDS011;70644;44.818;20.478;2023-12-07T12:18:13;10.00;;;6.25;;
81170;SDS011;70644;44.818;20.478;2023-12-07T12:20:41;9.82;;;6.75;;
81170;SDS011;70644;44.818;20.478;2023-12-07T12:23:08;10.85;;;7.05;;
81170;SDS011;70644;44.818;20.478;2023-12-07T12:25:34;10.25;;;6.70;;
81170;SDS011;70644;44.818;20.478;2023-12-07T12:28:04;9.50;;;6.40;;
81170;SDS011;70644;44.818;20.478;2023-12-07T12:30:32;9.00;;;6.30;;
81170;SDS011;70644;44.818;20.478;2023-12-07T12:32:58;10.25;;;5.95;;
81170;SDS011;70644;44.818;20.478;2023-12-07T12:35:27;10.70;;;5.85;;
81170;SDS011;70644;44.818;20.478;2023-12-07T12:37:54;9.32;;;5.97;;
81170;SDS011;70644;44.818;20.478;2023-12-07T12:40:23;8.43;;;5.70;;
81170;SDS011;70644;44.818;20.478;2023-12-07T12:42:50;10.43;;;6.65;;
81170;SDS011;70644;44.818;20.478;2023-12-07T12:45:17;10.75;;;6.22;;
81170;SDS011;70644;44.818;20.478;2023-12-07T12:47:43;11.48;;;5.72;;
81170;SDS011;70644;44.818;20.478;2023-12-07T12:50:13;9.20;;;5.78;;
81170;SDS011;70644;44.818;20.478;2023-12-07T12:52:57;10.27;;;5.68;;
81170;SDS011;70644;44.818;20.478;2023-12-07T12:55:25;9.95;;;5.80;;
81170;SDS011;70644;44.818;20.478;2023-12-07T12:57:51;12.15;;;6.25;;
81170;SDS011;70644;44.818;20.478;2023-12-07T13:00:17;8.02;;;5.43;;
81170;SDS011;70644;44.818;20.478;2023-12-07T13:02:44;7.57;;;5.60;;
81170;SDS011;70644;44.818;20.478;2023-12-07T13:05:10;8.60;;;6.28;;
81170;SDS011;70644;44.818;20.478;2023-12-07T13:07:37;9.27;;;5.70;;
81170;SDS011;70644;44.818;20.478;2023-12-07T13:10:03;7.95;;;5.40;;
81170;SDS011;70644;44.818;20.478;2023-12-07T13:12:29;10.48;;;5.72;;
81170;SDS011;70644;44.818;20.478;2023-12-07T13:14:59;8.93;;;5.63;;
81170;SDS011;70644;44.818;20.478;2023-12-07T13:17:25;7.40;;;5.38;;
81170;SDS011;70644;44.818;20.478;2023-12-07T13:19:51;8.60;;;5.75;;
81170;SDS011;70644;44.818;20.478;2023-12-07T13:22:17;9.98;;;5.80;;
81170;SDS011;70644;44.818;20.478;2023-12-07T13:24:45;6.80;;;5.15;;
81170;SDS011;70644;44.818;20.478;2023-12-07T13:27:11;7.20;;;5.35;;
81170;SDS011;70644;44.818;20.478;2023-12-07T13:29:37;7.53;;;5.35;;
81170;SDS011;70644;44.818;20.478;2023-12-07T13:32:03;6.22;;;5.22;;
81170;SDS011;70644;44.818;20.478;2023-12-07T13:34:30;6.80;;;5.32;;
81170;SDS011;70644;44.818;20.478;2023-12-07T13:36:56;6.90;;;5.25;;
81170;SDS011;70644;44.818;20.478;2023-12-07T13:39:22;5.82;;;4.90;;
81170;SDS011;70644;44.818;20.478;2023-12-07T13:41:48;7.20;;;5.32;;
81170;SDS011;70644;44.818;20.478;2023-12-07T13:44:15;8.30;;;5.68;;
81170;SDS011;70644;44.818;20.478;2023-12-07T13:46:42;8.15;;;5.28;;
81170;SDS011;70644;44.818;20.478;2023-12-07T13:49:09;6.22;;;5.45;;
81170;SDS011;70644;44.818;20.478;2023-12-07T13:51:37;5.75;;;4.80;;
81170;SDS011;70644;44.818;20.478;2023-12-07T13:54:03;6.57;;;5.22;;
81170;SDS011;70644;44.818;20.478;2023-12-07T13:56:29;7.75;;;5.38;;
81170;SDS011;70644;44.818;20.478;2023-12-07T13:58:56;6.25;;;5.20;;
81170;SDS011;70644;44.818;20.478;2023-12-07T14:01:22;5.53;;;4.78;;
81170;SDS011;70644;44.818;20.478;2023-12-07T14:03:48;9.65;;;5.57;;
81170;SDS011;70644;44.818;20.478;2023-12-07T14:06:22;6.20;;;5.00;;
81170;SDS011;70644;44.818;20.478;2023-12-07T14:08:49;15.65;;;5.80;;
81170;SDS011;70644;44.818;20.478;2023-12-07T14:11:15;8.82;;;5.45;;
81170;SDS011;70644;44.818;20.478;2023-12-07T14:13:41;7.07;;;6.38;;
81170;SDS011;70644;44.818;20.478;2023-12-07T14:16:08;9.15;;;7.90;;
81170;SDS011;70644;44.818;20.478;2023-12-07T14:18:34;9.85;;;7.30;;
81170;SDS011;70644;44.818;20.478;2023-12-07T14:21:00;8.75;;;7.63;;
81170;SDS011;70644;44.818;20.478;2023-12-07T14:23:27;8.32;;;6.93;;
81170;SDS011;70644;44.818;20.478;2023-12-07T14:25:53;7.40;;;6.63;;
81170;SDS011;70644;44.818;20.478;2023-12-07T14:28:23;8.07;;;6.50;;
81170;SDS011;70644;44.818;20.478;2023-12-07T14:30:49;7.18;;;6.47;;
81170;SDS011;70644;44.818;20.478;2023-12-07T14:33:21;8.02;;;6.43;;
81170;SDS011;70644;44.818;20.478;2023-12-07T14:35:47;7.45;;;6.55;;
81170;SDS011;70644;44.818;20.478;2023-12-07T14:38:14;7.30;;;5.85;;